Time;durP1;ratioP1;P1;durP2;ratioP2;P2;SDS_P1;SDS_P2;PMS_P1;PMS_P2;Temp;Humidity;BMP_temperature;BMP_pressure;BME280_temperature;BME280_humidity;BME280_pressure;Samples;Min_cycle;Max_cycle;Signal;HPM_P1;HPM_P2
2021/03/25 00:01:09;;;;;;;87.93;41.97;;;6.60;99.90;;;;;;5025483;28;20204;-85
2021/03/25 00:03:37;;;;;;;72.10;40.53;;;6.60;99.90;;;;;;5025993;28;20219;-86
2021/03/25 00:06:04;;;;;;;70.78;38.80;;;6.70;99.90;;;;;;5024697;28;20255;-86
2021/03/25 00:08:33;;;;;;;73.90;42.85;;;6.70;99.90;;;;;;5034896;28;20204;-86
2021/03/25 00:11:01;;;;;;;69.13;39.40;;;6.70;99.90;;;;;;5031782;28;20200;-86
2021/03/25 00:13:27;;;;;;;79.18;41.50;;;6.60;99.90;;;;;;5024612;28;20203;-86
2021/03/25 00:15:53;;;;;;;78.40;41.50;;;6.60;99.90;;;;;;5023515;28;20323;-86
2021/03/25 00:18:20;;;;;;;78.30;40.30;;;6.60;99.90;;;;;;5023265;28;20231;-86
2021/03/25 00:20:48;;;;;;;79.15;40.95;;;6.60;99.90;;;;;;5022279;28;20204;-86
2021/03/25 00:23:15;;;;;;;75.00;39.65;;;6.60;99.90;;;;;;5022284;28;20208;-86
2021/03/25 00:25:42;;;;;;;71.20;38.67;;;6.50;99.90;;;;;;5022310;28;20220;-87
2021/03/25 00:28:10;;;;;;;71.28;41.40;;;6.60;99.90;;;;;;5029495;28;20200;-87
2021/03/25 00:30:36;;;;;;;70.88;39.88;;;6.60;99.90;;;;;;5033559;28;20322;-87
2021/03/25 00:33:05;;;;;;;89.28;43.50;;;6.50;99.90;;;;;;5035821;28;20212;-86
2021/03/25 00:35:32;;;;;;;74.88;44.85;;;6.50;99.90;;;;;;5036052;28;20220;-86
2021/03/25 00:38:00;;;;;;;73.10;38.10;;;6.50;99.90;;;;;;5035773;28;20311;-86
2021/03/25 00:40:27;;;;;;;76.30;42.20;;;6.40;99.90;;;;;;5035993;28;20204;-85
2021/03/25 00:42:53;;;;;;;76.78;39.83;;;6.30;99.90;;;;;;5035135;28;20205;-85
2021/03/25 00:45:24;;;;;;;76.35;40.55;;;6.20;99.90;;;;;;5028590;28;20232;-85
2021/03/25 00:47:50;;;;;;;76.30;44.10;;;6.20;99.90;;;;;;5026834;28;20188;-85
2021/03/25 00:50:23;;;;;;;75.78;39.40;;;6.30;99.90;;;;;;5025917;28;20200;-86
2021/03/25 00:52:49;;;;;;;76.60;40.90;;;6.30;99.90;;;;;;5030914;28;20196;-86
2021/03/25 00:55:16;;;;;;;74.07;40.42;;;6.40;99.90;;;;;;5037531;28;20243;-86
2021/03/25 00:57:42;;;;;;;65.50;38.72;;;6.40;99.90;;;;;;5029713;28;20224;-86
2021/03/25 01:00:11;;;;;;;76.90;42.80;;;6.40;99.90;;;;;;5025636;28;20208;-86
2021/03/25 01:02:37;;;;;;;83.20;41.90;;;6.50;99.90;;;;;;5034915;28;20201;-86
2021/03/25 01:05:05;;;;;;;84.93;46.78;;;6.50;99.90;;;;;;5036868;28;20270;-86
2021/03/25 01:07:31;;;;;;;78.25;42.42;;;6.40;99.90;;;;;;5033224;28;20200;-86
2021/03/25 01:09:57;;;;;;;78.07;41.83;;;6.40;99.90;;;;;;5026089;28;20208;-86
2021/03/25 01:12:24;;;;;;;69.22;39.55;;;6.40;99.90;;;;;;5024456;28;20259;-85
2021/03/25 01:14:50;;;;;;;69.30;40.35;;;6.30;99.90;;;;;;5027055;28;20232;-85
2021/03/25 01:17:16;;;;;;;69.95;41.00;;;6.30;99.90;;;;;;5024658;28;20221;-86
2021/03/25 01:19:43;;;;;;;76.68;41.10;;;6.20;99.90;;;;;;5023917;28;20211;-86
2021/03/25 01:22:09;;;;;;;68.85;38.60;;;6.20;99.90;;;;;;5024656;28;20208;-86
2021/03/25 01:24:36;;;;;;;77.22;40.75;;;;;;;;;;5024143;28;20200;-86
2021/03/25 01:27:02;;;;;;;74.05;41.00;;;6.10;99.90;;;;;;5023164;28;20216;-86
2021/03/25 01:29:29;;;;;;;77.45;38.38;;;6.00;99.90;;;;;;5023856;28;20201;-86
2021/03/25 01:31:56;;;;;;;78.38;40.30;;;5.80;99.90;;;;;;5022951;28;20211;-86
2021/03/25 01:34:23;;;;;;;76.20;40.83;;;5.90;99.90;;;;;;5022431;28;20204;-86
2021/03/25 01:36:50;;;;;;;85.22;40.65;;;5.70;99.90;;;;;;5065927;22;20268;-81
2021/03/25 01:39:17;;;;;;;66.78;40.88;;;5.70;99.90;;;;;;5058958;28;20256;-81
2021/03/25 01:41:44;;;;;;;83.40;42.67;;;5.60;99.90;;;;;;5059379;28;20206;-80
2021/03/25 01:44:35;;;;;;;78.50;41.50;;;5.60;99.90;;;;;;5057735;28;20207;-80
2021/03/25 01:47:04;;;;;;;76.20;41.63;;;5.50;99.90;;;;;;5058078;28;20226;-80
2021/03/25 01:49:30;;;;;;;74.32;39.13;;;5.40;99.90;;;;;;5057681;28;20202;-81
2021/03/25 01:52:13;;;;;;;79.65;40.05;;;5.50;99.90;;;;;;5058324;28;20226;-80
2021/03/25 01:55:07;;;;;;;71.38;39.10;;;5.60;99.90;;;;;;5058694;28;20206;-80
2021/03/25 01:57:48;;;;;;;79.90;39.72;;;5.70;99.90;;;;;;5061790;28;20203;-79
2021/03/25 02:00:22;;;;;;;71.65;39.47;;;5.70;99.90;;;;;;5074030;28;20179;-81
2021/03/25 02:02:59;;;;;;;80.43;39.70;;;5.80;99.90;;;;;;5065404;28;20186;-80
2021/03/25 02:05:31;;;;;;;74.00;38.88;;;5.70;99.90;;;;;;5058885;28;20257;-80
2021/03/25 02:08:08;;;;;;;73.95;38.78;;;5.60;99.90;;;;;;5058570;28;20238;-80
2021/03/25 02:10:58;;;;;;;79.85;39.78;;;5.70;99.90;;;;;;5057783;28;20222;-80
2021/03/25 02:13:30;;;;;;;74.03;39.15;;;5.70;99.90;;;;;;5057669;28;20239;-80
2021/03/25 02:16:03;;;;;;;78.13;39.17;;;5.60;99.90;;;;;;5057881;28;20219;-80
2021/03/25 02:18:33;;;;;;;70.95;39.78;;;5.50;99.90;;;;;;5059190;28;20210;-80
2021/03/25 02:21:34;;;;;;;73.75;41.17;;;5.50;99.90;;;;;;5057878;28;20203;-80
2021/03/25 02:24:20;;;;;;;70.75;39.92;;;5.50;99.90;;;;;;5058313;28;20214;-81
2021/03/25 02:26:50;;;;;;;78.03;40.53;;;5.50;99.90;;;;;;5064121;28;20234;-79
2021/03/25 02:29:34;;;;;;;70.57;37.92;;;5.50;99.90;;;;;;5073600;28;20205;-78
2021/03/25 02:32:05;;;;;;;64.10;37.05;;;5.60;99.90;;;;;;5072517;28;20191;-79
2021/03/25 02:34:35;;;;;;;72.00;37.78;;;5.60;99.90;;;;;;5057601;28;20263;-80
2021/03/25 02:37:07;;;;;;;74.35;39.67;;;5.50;99.90;;;;;;5056658;28;20611;-80
2021/03/25 02:39:38;;;;;;;73.03;37.88;;;5.40;99.90;;;;;;5056573;28;20274;-80
2021/03/25 02:42:09;;;;;;;81.20;42.70;;;5.30;99.90;;;;;;5056422;28;20219;-79
2021/03/25 02:44:40;;;;;;;70.65;38.08;;;5.40;99.90;;;;;;5055645;28;20668;-80
2021/03/25 02:47:09;;;;;;;70.03;38.53;;;5.30;99.90;;;;;;5055618;28;20222;-80
2021/03/25 02:49:41;;;;;;;75.60;38.08;;;5.40;99.90;;;;;;5056248;28;20652;-80
2021/03/25 02:52:15;;;;;;;74.80;41.50;;;5.40;99.90;;;;;;5057978;28;20182;-80
2021/03/25 02:54:42;;;;;;;80.28;42.38;;;5.40;99.90;;;;;;5068498;28;20198;-78
2021/03/25 02:57:13;;;;;;;76.97;39.60;;;5.80;99.90;;;;;;5071441;28;20195;-78
2021/03/25 02:59:41;;;;;;;76.07;38.72;;;5.50;99.90;;;;;;5070851;28;20202;-80
2021/03/25 03:02:17;;;;;;;76.68;43.13;;;5.60;99.90;;;;;;5058806;28;20204;-80
2021/03/25 03:04:45;;;;;;;77.72;39.05;;;5.50;99.90;;;;;;5067001;28;20191;-79
2021/03/25 03:07:15;;;;;;;82.57;42.20;;;5.60;99.90;;;;;;5070495;28;20237;-78
2021/03/25 03:09:44;;;;;;;94.10;44.88;;;5.60;99.90;;;;;;5071448;28;20183;-79
2021/03/25 03:12:14;;;;;;;76.00;38.45;;;5.50;99.90;;;;;;5059181;28;20205;-80
2021/03/25 03:14:45;;;;;;;79.05;38.65;;;5.40;99.90;;;;;;5056503;28;20187;-80
2021/03/25 03:17:16;;;;;;;76.38;40.55;;;5.30;99.90;;;;;;5056073;28;20184;-80
2021/03/25 03:19:47;;;;;;;77.05;41.28;;;5.20;99.90;;;;;;5056330;28;20195;-80
2021/03/25 03:22:13;;;;;;;73.32;39.38;;;5.20;99.90;;;;;;5059027;28;20184;-80
2021/03/25 03:24:39;;;;;;;75.20;39.45;;;5.20;99.90;;;;;;5061611;28;20203;-79
2021/03/25 03:27:09;;;;;;;79.03;41.03;;;5.20;99.90;;;;;;5064980;28;20227;-79
2021/03/25 03:29:37;;;;;;;79.15;39.45;;;5.20;99.90;;;;;;5068364;28;20210;-80
2021/03/25 03:32:09;;;;;;;79.70;40.35;;;5.30;99.90;;;;;;5068808;28;20218;-79
2021/03/25 03:34:41;;;;;;;77.00;40.83;;;5.20;99.90;;;;;;5069913;28;20195;-80
2021/03/25 03:37:10;;;;;;;76.30;41.35;;;5.10;99.90;;;;;;5067528;28;20234;-80
2021/03/25 03:39:39;;;;;;;78.70;39.83;;;5.20;99.90;;;;;;5071251;28;20199;-79
2021/03/25 03:42:10;;;;;;;73.80;37.30;;;5.10;99.90;;;;;;5074368;28;20214;-79
2021/03/25 03:44:42;;;;;;;75.43;39.80;;;4.90;99.90;;;;;;5069622;28;20221;-78
2021/03/25 03:47:09;;;;;;;74.00;40.97;;;5.00;99.90;;;;;;5076763;28;20286;-78
2021/03/25 03:49:42;;;;;;;81.20;42.38;;;5.00;99.90;;;;;;5063730;28;20211;-80
2021/03/25 03:52:12;;;;;;;75.90;41.67;;;5.00;99.90;;;;;;5061151;28;20625;-80
2021/03/25 03:54:39;;;;;;;74.30;39.25;;;4.80;99.90;;;;;;5060766;28;20696;-80
2021/03/25 03:57:13;;;;;;;70.53;37.85;;;4.90;99.90;;;;;;5060338;28;20227;-80
2021/03/25 03:59:49;;;;;;;72.05;35.97;;;4.80;99.90;;;;;;5060246;28;20260;-80
2021/03/25 04:02:25;;;;;;;71.88;38.95;;;4.80;99.90;;;;;;5060058;28;20187;-80
2021/03/25 04:05:10;;;;;;;69.63;37.38;;;4.90;99.90;;;;;;5060404;28;20187;-81
2021/03/25 04:07:42;;;;;;;81.40;39.88;;;4.90;99.90;;;;;;5060015;28;20202;-80
2021/03/25 04:10:13;;;;;;;79.47;39.97;;;4.90;99.90;;;;;;5060254;28;20188;-80
2021/03/25 04:12:44;;;;;;;75.30;38.22;;;4.70;99.90;;;;;;5060380;28;20199;-80
2021/03/25 04:15:15;;;;;;;82.45;41.88;;;4.80;99.90;;;;;;5059337;28;20247;-80
2021/03/25 04:17:46;;;;;;;73.30;39.78;;;4.80;99.90;;;;;;5059520;28;20188;-80
2021/03/25 04:20:16;;;;;;;83.85;41.03;;;4.90;99.90;;;;;;5059214;28;20603;-80
2021/03/25 04:22:47;;;;;;;86.35;41.15;;;4.80;99.90;;;;;;5058817;28;20683;-81
2021/03/25 04:25:21;;;;;;;82.22;43.67;;;4.80;99.90;;;;;;5057951;28;20466;-82
2021/03/25 04:27:51;;;;;;;82.90;42.45;;;4.90;99.90;;;;;;5058826;28;20540;-82
2021/03/25 04:30:21;;;;;;;78.07;42.17;;;4.90;99.90;;;;;;5059770;28;20501;-78
2021/03/25 04:32:49;;;;;;;78.75;41.05;;;4.80;99.90;;;;;;5073481;28;20199;-77
2021/03/25 04:35:17;;;;;;;88.80;39.90;;;4.70;99.90;;;;;;5062824;28;20238;-80
2021/03/25 04:37:44;;;;;;;76.53;40.42;;;4.60;99.90;;;;;;5060502;28;20556;-80
2021/03/25 04:40:14;;;;;;;72.00;38.22;;;4.70;99.90;;;;;;5060741;28;20261;-80
2021/03/25 04:42:41;;;;;;;81.35;39.03;;;4.70;99.90;;;;;;5060495;28;20199;-80
2021/03/25 04:45:15;;;;;;;82.03;40.28;;;4.90;99.90;;;;;;5059401;28;20246;-81
2021/03/25 04:47:44;;;;;;;78.50;38.55;;;4.60;99.90;;;;;;5059708;28;20257;-82
2021/03/25 04:50:19;;;;;;;83.43;42.35;;;4.60;99.90;;;;;;5059913;28;20253;-80
2021/03/25 04:52:46;;;;;;;87.05;40.38;;;4.60;99.90;;;;;;5060072;28;20198;-80
2021/03/25 04:55:19;;;;;;;79.68;41.05;;;4.70;99.90;;;;;;5064385;28;20223;-79
2021/03/25 04:57:52;;;;;;;76.50;40.80;;;4.70;99.90;;;;;;5066690;28;20199;-79
2021/03/25 05:00:24;;;;;;;84.18;43.63;;;4.80;99.90;;;;;;5062447;28;20183;-80
2021/03/25 05:02:50;;;;;;;78.13;41.70;;;4.70;99.90;;;;;;5059647;28;20195;-80
2021/03/25 05:05:21;;;;;;;78.63;38.83;;;4.80;99.90;;;;;;5059900;28;20273;-79
2021/03/25 05:07:51;;;;;;;81.32;43.25;;;4.70;99.90;;;;;;5060866;28;20222;-80
2021/03/25 05:10:24;;;;;;;85.03;42.65;;;4.60;99.90;;;;;;5059564;28;20583;-80
2021/03/25 05:12:51;;;;;;;84.43;40.67;;;4.60;99.90;;;;;;5066108;28;20209;-78
2021/03/25 05:15:19;;;;;;;84.15;41.30;;;4.60;99.90;;;;;;5073708;28;20286;-78
2021/03/25 05:17:51;;;;;;;101.45;58.25;;;4.60;99.90;;;;;;5071662;28;20208;-78
2021/03/25 05:20:21;;;;;;;99.00;53.15;;;4.60;99.90;;;;;;5066752;28;20444;-78
2021/03/25 05:22:58;;;;;;;88.50;47.22;;;4.60;99.90;;;;;;5059028;28;20452;-80
2021/03/25 05:25:32;;;;;;;90.20;43.05;;;4.60;99.90;;;;;;5058495;28;20465;-80
2021/03/25 05:28:02;;;;;;;86.35;40.35;;;4.60;99.90;;;;;;5058701;28;20257;-80
2021/03/25 05:30:33;;;;;;;82.10;39.83;;;4.70;99.90;;;;;;5059319;28;20241;-80
2021/03/25 05:33:03;;;;;;;78.70;39.13;;;4.70;99.90;;;;;;5059133;28;20624;-82
2021/03/25 05:35:33;;;;;;;83.53;38.17;;;4.70;99.90;;;;;;5058597;28;20316;-80
2021/03/25 05:38:01;;;;;;;84.05;43.55;;;4.70;99.90;;;;;;5061760;28;20180;-78
2021/03/25 05:40:31;;;;;;;79.63;40.90;;;4.80;99.90;;;;;;5067818;28;20253;-77
2021/03/25 05:43:17;;;;;;;74.50;39.63;;;4.80;99.90;;;;;;5069291;28;20195;-77
2021/03/25 05:45:51;;;;;;;87.03;42.00;;;4.90;99.90;;;;;;5070563;28;20253;-79
2021/03/25 05:48:27;;;;;;;74.45;37.67;;;4.90;99.90;;;;;;5066948;28;20210;-78
2021/03/25 05:51:02;;;;;;;85.47;41.67;;;4.80;99.90;;;;;;5067647;28;20197;-77
2021/03/25 05:53:40;;;;;;;87.30;40.38;;;4.90;99.90;;;;;;5067478;28;20191;-78
2021/03/25 05:56:16;;;;;;;82.60;42.08;;;4.90;99.90;;;;;;5066900;28;20225;-77
2021/03/25 05:58:46;;;;;;;82.03;39.42;;;5.00;99.90;;;;;;5071305;28;20214;-79
2021/03/25 06:01:37;;;;;;;84.32;41.72;;;5.00;99.90;;;;;;5069618;28;20195;-78
2021/03/25 06:04:11;;;;;;;81.70;40.13;;;5.10;99.90;;;;;;5069203;28;20199;-82
2021/03/25 06:07:21;;;;;;;78.85;40.42;;;5.10;99.90;;;;;;5070203;28;20590;-79
2021/03/25 06:10:02;;;;;;;74.63;39.55;;;5.20;99.90;;;;;;5069307;28;20210;-79
2021/03/25 06:12:39;;;;;;;71.40;39.95;;;5.00;99.90;;;;;;5069740;28;20187;-79
2021/03/25 06:15:17;;;;;;;77.70;38.75;;;5.20;99.90;;;;;;5069310;28;20227;-79
2021/03/25 06:17:55;;;;;;;78.72;41.60;;;5.30;99.90;;;;;;5070561;28;20277;-79
2021/03/25 06:21:03;;;;;;;73.15;37.58;;;5.30;99.90;;;;;;5069482;28;20256;-79
2021/03/25 06:23:52;;;;;;;85.00;40.95;;;5.40;99.90;;;;;;5061937;28;20211;-79
2021/03/25 06:26:33;;;;;;;80.82;36.13;;;5.60;99.90;;;;;;5054590;28;20219;-80
2021/03/25 06:29:05;;;;;;;80.00;41.55;;;5.40;99.90;;;;;;5067418;28;20199;-81
2021/03/25 06:31:51;;;;;;;67.00;36.63;;;5.50;99.90;;;;;;5061579;28;20194;-81
2021/03/25 06:34:24;;;;;;;78.07;38.90;;;5.60;99.90;;;;;;5061682;28;20187;-78
2021/03/25 06:36:58;;;;;;;69.57;37.83;;;5.60;99.90;;;;;;5071697;28;20230;-79
2021/03/25 06:39:37;;;;;;;68.60;38.90;;;5.70;99.90;;;;;;5072538;28;20210;-80
2021/03/25 06:42:14;;;;;;;59.75;34.15;;;5.90;99.90;;;;;;5069955;28;20191;-80
2021/03/25 06:44:45;;;;;;;68.50;37.95;;;5.70;99.90;;;;;;5068650;28;20206;-79
2021/03/25 06:47:22;;;;;;;71.22;36.35;;;5.70;99.90;;;;;;5058485;28;20208;-80
2021/03/25 06:49:53;;;;;;;67.22;38.78;;;5.70;99.90;;;;;;5057482;28;20198;-82
2021/03/25 06:52:26;;;;;;;77.55;39.50;;;5.80;99.90;;;;;;5056675;28;20192;-80
2021/03/25 06:54:55;;;;;;;67.53;36.70;;;5.70;99.90;;;;;;5058373;28;20191;-81
2021/03/25 06:57:22;;;;;;;71.03;37.60;;;5.80;99.90;;;;;;5056698;28;20214;-80
2021/03/25 06:59:52;;;;;;;70.85;37.90;;;5.90;99.90;;;;;;5056266;28;20242;-80
2021/03/25 07:02:23;;;;;;;76.43;37.17;;;6.00;99.90;;;;;;5056594;28;20199;-80
2021/03/25 07:04:52;;;;;;;73.45;38.10;;;6.30;99.90;;;;;;5055696;28;20297;-79
2021/03/25 07:07:20;;;;;;;69.85;38.70;;;6.20;99.90;;;;;;5055794;28;20250;-82
2021/03/25 07:09:51;;;;;;;63.85;38.97;;;6.20;99.90;;;;;;5056343;28;20203;-79
2021/03/25 07:12:20;;;;;;;66.40;36.17;;;6.20;99.90;;;;;;5057514;28;20241;-80
2021/03/25 07:14:48;;;;;;;72.85;39.40;;;6.40;99.90;;;;;;5056471;28;20719;-81
2021/03/25 07:17:17;;;;;;;73.07;37.95;;;6.30;99.90;;;;;;5056815;28;20670;-81
2021/03/25 07:19:49;;;;;;;69.18;36.83;;;6.30;99.90;;;;;;5057182;28;20203;-79
2021/03/25 07:22:20;;;;;;;71.57;36.47;;;6.30;99.90;;;;;;5063301;28;20191;-77
2021/03/25 07:24:47;;;;;;;60.45;36.47;;;6.40;99.90;;;;;;5064993;28;20179;-79
2021/03/25 07:27:17;;;;;;;60.58;37.22;;;6.50;99.90;;;;;;5060305;28;20226;-80
2021/03/25 07:29:55;;;;;;;67.93;37.20;;;6.50;99.90;;;;;;5061129;28;20574;-80
2021/03/25 07:32:34;;;;;;;87.63;41.28;;;6.70;99.90;;;;;;5062012;28;20642;-80
2021/03/25 07:35:14;;;;;;;69.05;38.00;;;6.80;99.90;;;;;;5070459;28;20306;-78
2021/03/25 07:37:43;;;;;;;66.65;37.05;;;7.10;99.90;;;;;;5077910;22;20235;-84
2021/03/25 07:40:25;;;;;;;67.00;34.90;;;7.30;99.90;;;;;;5042079;28;20204;-84
2021/03/25 07:42:52;;;;;;;63.45;35.90;;;7.40;99.90;;;;;;5040934;28;20188;-84
2021/03/25 07:45:25;;;;;;;63.30;34.72;;;7.10;99.90;;;;;;5042226;28;20200;-85
2021/03/25 07:47:53;;;;;;;69.68;35.28;;;7.40;99.90;;;;;;5040770;28;20235;-84
2021/03/25 07:50:30;;;;;;;66.72;35.10;;;7.50;99.90;;;;;;5040356;28;20215;-84
2021/03/25 07:52:58;;;;;;;69.22;35.53;;;7.70;99.90;;;;;;5041158;28;20255;-84
2021/03/25 07:55:27;;;;;;;74.95;36.78;;;7.90;99.90;;;;;;5047110;28;20207;-84
2021/03/25 07:57:55;;;;;;;63.78;35.30;;;8.00;99.90;;;;;;5052080;28;20223;-84
2021/03/25 08:00:28;;;;;;;61.30;35.10;;;8.00;99.90;;;;;;5044172;28;20204;-84
2021/03/25 08:03:25;;;;;;;68.30;36.67;;;8.10;99.90;;;;;;5041734;28;20640;-84
2021/03/25 08:05:51;;;;;;;62.30;34.72;;;8.30;99.90;;;;;;4969999;29;20483;-84
2021/03/25 08:08:23;;;;;;;64.13;35.88;;;8.50;99.90;;;;;;5028110;28;20247;-84
2021/03/25 08:10:51;;;;;;;64.93;36.53;;;8.40;99.90;;;;;;5044493;28;20212;-83
2021/03/25 08:13:22;;;;;;;69.70;36.90;;;8.50;99.90;;;;;;5051556;28;20421;-84
2021/03/25 08:15:51;;;;;;;58.70;34.23;;;8.70;99.90;;;;;;5056533;28;20476;-84
2021/03/25 08:18:47;;;;;;;67.17;35.17;;;7.70;99.90;;;;;;5059092;28;20474;-84
2021/03/25 08:21:33;;;;;;;71.33;36.23;;;9.10;99.90;;;;;;5059717;28;20460;-84
2021/03/25 08:24:42;;;;;;;70.63;33.83;;;9.40;99.90;;;;;;5059528;28;20435;-84
2021/03/25 08:27:17;;;;;;;71.77;37.50;;;9.30;99.90;;;;;;5045641;28;20482;-84
2021/03/25 08:29:53;;;;;;;63.93;36.57;;;9.40;99.90;;;;;;5043326;28;20435;-84
2021/03/25 08:32:26;;;;;;;67.80;36.33;;;9.40;99.90;;;;;;5042523;28;20466;-84
2021/03/25 08:35:13;;;;;;;69.47;35.60;;;9.60;99.90;;;;;;5041199;28;20936;-83
2021/03/25 08:37:59;;;;;;;76.17;36.83;;;9.60;99.90;;;;;;5041504;28;20540;-83
2021/03/25 08:40:38;;;;;;;72.07;34.63;;;9.60;99.90;;;;;;5042360;28;20441;-84
2021/03/25 08:43:06;;;;;;;72.60;40.13;;;9.70;99.90;;;;;;5041015;28;20435;-84
2021/03/25 08:45:39;;;;;;;58.30;37.30;;;9.80;99.90;;;;;;5041712;28;20446;-84
2021/03/25 08:48:13;;;;;;;61.60;36.73;;;9.90;99.90;;;;;;5045011;28;20480;-83
2021/03/25 08:50:46;;;;;;;66.50;35.80;;;10.10;99.90;;;;;;5044199;28;20431;-84
2021/03/25 08:53:25;;;;;;;57.80;35.13;;;10.30;99.90;;;;;;5043448;28;20457;-84
2021/03/25 08:55:53;;;;;;;61.07;35.50;;;10.80;99.90;;;;;;5043128;28;20952;-84
2021/03/25 08:58:22;;;;;;;65.60;35.70;;;10.50;99.90;;;;;;5043418;28;20469;-84
2021/03/25 09:00:51;;;;;;;65.50;38.77;;;10.50;99.90;;;;;;5042521;28;20469;-84
2021/03/25 09:03:24;;;;;;;61.40;36.67;;;10.50;99.90;;;;;;5042976;28;20469;-83
2021/03/25 09:05:59;;;;;;;63.80;36.10;;;10.60;99.90;;;;;;5046081;28;20450;-84
2021/03/25 09:08:27;;;;;;;61.43;35.90;;;11.00;99.90;;;;;;5047380;28;20506;-84
2021/03/25 09:10:56;;;;;;;62.27;38.53;;;11.00;99.90;;;;;;5042264;28;20470;-84
2021/03/25 09:13:25;;;;;;;71.80;38.13;;;11.00;99.90;;;;;;5042312;28;20446;-84
2021/03/25 09:15:55;;;;;;;66.63;36.93;;;11.00;99.90;;;;;;5044581;28;20459;-84
2021/03/25 09:18:25;;;;;;;63.97;37.20;;;11.00;99.90;;;;;;5042377;28;20509;-84
2021/03/25 09:20:55;;;;;;;64.10;37.30;;;11.20;99.90;;;;;;5041503;28;20925;-84
2021/03/25 09:23:46;;;;;;;62.83;35.07;;;11.20;99.90;;;;;;5042061;28;20446;-84
2021/03/25 09:26:50;;;;;;;62.97;34.83;;;11.70;99.90;;;;;;5045446;28;20526;-85
2021/03/25 09:29:17;;;;;;;69.00;37.70;;;11.50;99.90;;;;;;5056477;28;20458;-84
2021/03/25 09:32:32;;;;;;;63.73;37.57;;;12.00;99.90;;;;;;5058557;28;20461;-85
2021/03/25 09:35:02;;;;;;;69.70;35.50;;;11.80;99.90;;;;;;5058561;28;20442;-84
2021/03/25 09:37:29;;;;;;;87.43;43.50;;;11.90;99.90;;;;;;5059125;28;20546;-84
2021/03/25 09:40:32;;;;;;;61.00;36.97;;;11.90;99.90;;;;;;5058931;28;20447;-84
2021/03/25 09:43:27;;;;;;;57.93;37.03;;;12.00;99.90;;;;;;5055582;28;20785;-85
2021/03/25 09:45:54;;;;;;;58.63;35.47;;;12.10;99.90;;;;;;5056813;28;20434;-84
2021/03/25 09:48:24;;;;;;;58.23;34.33;;;12.20;99.90;;;;;;5056336;28;20497;-86
2021/03/25 09:51:11;;;;;;;65.77;35.50;;;13.10;99.90;;;;;;5056830;28;20447;-85
2021/03/25 09:53:46;;;;;;;70.07;37.53;;;12.40;99.90;;;;;;5055592;28;20437;-84
2021/03/25 09:56:36;;;;;;;60.00;35.60;;;12.50;99.90;;;;;;5047484;28;20449;-84
2021/03/25 09:59:03;;;;;;;59.73;33.90;;;12.40;99.90;;;;;;5047062;28;20481;-84
2021/03/25 10:01:42;;;;;;;70.20;37.63;;;12.40;99.90;;;;;;5046279;28;20450;-84
2021/03/25 10:04:34;;;;;;;67.60;36.90;;;12.50;99.90;;;;;;5045779;28;20446;-84
2021/03/25 10:07:43;;;;;;;61.50;34.73;;;12.30;99.90;;;;;;5044984;28;20500;-85
2021/03/25 10:10:38;;;;;;;64.13;35.27;;;12.90;99.90;;;;;;5045693;28;20465;-84
2021/03/25 10:13:37;;;;;;;69.30;35.60;;;12.80;99.90;;;;;;5047472;28;20438;-84
2021/03/25 10:16:11;;;;;;;61.00;33.83;;;12.90;99.90;;;;;;5044400;28;20458;-86
2021/03/25 10:18:57;;;;;;;57.70;34.63;;;12.90;99.90;;;;;;5043856;28;20470;-85
2021/03/25 10:22:01;;;;;;;58.53;32.13;;;12.40;99.90;;;;;;5043200;28;20928;-85
2021/03/25 10:24:37;;;;;;;57.60;34.60;;;13.10;99.90;;;;;;5042674;28;20451;-84
2021/03/25 10:27:21;;;;;;;67.90;34.60;;;13.20;99.90;;;;;;5041471;28;20484;-84
2021/03/25 10:29:48;;;;;;;64.83;36.27;;;;;;;;;;5024390;28;20454;-84
2021/03/25 10:32:25;;;;;;;63.00;36.20;;;13.70;99.90;;;;;;5042564;28;20462;-84
2021/03/25 10:34:59;;;;;;;57.73;34.60;;;12.30;99.90;;;;;;5046458;28;20428;-85
2021/03/25 10:37:32;;;;;;;62.17;33.60;;;12.90;99.90;;;;;;5051744;28;20996;-85
2021/03/25 10:40:14;;;;;;;65.60;33.70;;;12.70;99.90;;;;;;5049105;28;20442;-85
2021/03/25 10:42:44;;;;;;;51.90;32.00;;;13.40;99.90;;;;;;5045134;28;20442;-84
2021/03/25 10:45:16;;;;;;;58.10;33.03;;;13.40;99.90;;;;;;5041560;28;20948;-84
2021/03/25 10:47:52;;;;;;;56.53;34.20;;;13.60;99.90;;;;;;5042437;28;20469;-84
2021/03/25 10:50:21;;;;;;;55.73;33.23;;;13.50;99.90;;;;;;5055172;28;20422;-84
2021/03/25 10:52:50;;;;;;;58.27;33.57;;;;;;;;;;5052936;28;20447;-85
2021/03/25 10:55:25;;;;;;;59.37;34.63;;;13.60;99.90;;;;;;5050527;28;20442;-84
2021/03/25 10:57:53;;;;;;;54.03;32.97;;;13.60;99.90;;;;;;5047684;28;20546;-85
2021/03/25 11:00:23;;;;;;;59.63;32.50;;;13.50;99.90;;;;;;5044952;28;20472;-85
2021/03/25 11:02:49;;;;;;;57.97;32.30;;;13.40;99.90;;;;;;5045965;28;20452;-85
2021/03/25 11:05:18;;;;;;;56.97;31.43;;;13.40;99.90;;;;;;5045186;28;20458;-85
2021/03/25 11:07:47;;;;;;;59.53;33.23;;;13.30;99.90;;;;;;5045966;28;20469;-84
2021/03/25 11:10:21;;;;;;;61.73;34.00;;;13.40;99.90;;;;;;5048457;28;20545;-84
2021/03/25 11:12:56;;;;;;;50.17;31.33;;;13.30;99.90;;;;;;5049538;28;20434;-84
2021/03/25 11:15:28;;;;;;;57.60;32.27;;;13.30;99.90;;;;;;5052546;28;20429;-83
2021/03/25 11:17:54;;;;;;;56.70;31.33;;;13.40;99.90;;;;;;5052852;28;20497;-84
2021/03/25 11:20:24;;;;;;;52.53;33.23;;;13.50;99.90;;;;;;5054875;28;20443;-83
2021/03/25 11:22:54;;;;;;;51.10;30.37;;;13.60;99.90;;;;;;5052064;28;20431;-84
2021/03/25 11:25:25;;;;;;;60.20;32.40;;;13.70;99.90;;;;;;5051181;28;20446;-84
2021/03/25 11:28:06;;;;;;;53.30;31.10;;;14.00;99.90;;;;;;5052022;28;20466;-83
2021/03/25 11:30:38;;;;;;;52.47;30.30;;;14.10;99.90;;;;;;5050814;28;20430;-84
2021/03/25 11:33:23;;;;;;;51.07;30.13;;;14.10;99.90;;;;;;5047561;28;20439;-85
2021/03/25 11:35:52;;;;;;;45.63;28.57;;;14.20;99.90;;;;;;5046146;28;20426;-83
2021/03/25 11:38:29;;;;;;;52.83;30.90;;;14.40;99.90;;;;;;5044600;28;20480;-84
2021/03/25 11:41:01;;;;;;;50.67;29.90;;;14.80;99.90;;;;;;5049540;28;20440;-84
2021/03/25 11:43:44;;;;;;;53.00;29.07;;;14.80;99.90;;;;;;5049184;28;20435;-84
2021/03/25 11:46:23;;;;;;;52.40;29.60;;;15.20;99.90;;;;;;5046301;28;20441;-85
2021/03/25 11:48:59;;;;;;;53.33;29.10;;;14.70;99.90;;;;;;5051035;28;20458;-84
2021/03/25 11:51:26;;;;;;;49.60;29.33;;;15.10;99.90;;;;;;5054480;28;20438;-84
2021/03/25 11:53:54;;;;;;;39.67;25.50;;;15.20;99.90;;;;;;5052932;28;20842;-84
2021/03/25 11:56:27;;;;;;;39.17;24.57;;;15.30;99.90;;;;;;5051289;28;22167;-84
2021/03/25 11:59:00;;;;;;;42.27;26.47;;;15.40;99.90;;;;;;5054979;28;20466;-84
2021/03/25 12:04:30;;;;;;;40.73;25.93;;;15.20;99.90;;;;;;5054113;28;20446;-85
2021/03/25 12:07:01;;;;;;;38.57;24.70;;;14.90;99.90;;;;;;5055120;28;20473;-84
2021/03/25 12:09:30;;;;;;;43.57;25.47;;;15.10;99.90;;;;;;5054035;28;20446;-85
2021/03/25 12:12:04;;;;;;;44.93;28.40;;;15.10;99.90;;;;;;5056039;28;20489;-84
2021/03/25 12:14:31;;;;;;;46.10;25.20;;;;;;;;;;5055015;28;20474;-84
2021/03/25 12:17:04;;;;;;;45.23;26.67;;;15.20;99.90;;;;;;5055753;28;20526;-85
2021/03/25 12:19:38;;;;;;;45.30;27.17;;;15.20;99.90;;;;;;5053165;28;20850;-83
2021/03/25 12:22:15;;;;;;;41.00;27.27;;;15.10;99.90;;;;;;5048397;28;20442;-85
2021/03/25 12:24:50;;;;;;;47.07;26.10;;;15.40;99.90;;;;;;5049891;28;20415;-85
2021/03/25 12:27:23;;;;;;;41.23;25.30;;;15.40;99.90;;;;;;5047716;28;20559;-84
2021/03/25 12:29:55;;;;;;;38.90;25.97;;;15.20;99.90;;;;;;5051498;28;20476;-83
2021/03/25 12:32:29;;;;;;;42.43;27.70;;;15.50;99.90;;;;;;5052140;28;20577;-84
2021/03/25 12:35:01;;;;;;;46.00;25.90;;;;;;;;;;5051649;28;20442;-84
2021/03/25 12:37:32;;;;;;;41.67;25.40;;;14.10;99.90;;;;;;5052893;28;20528;-84
2021/03/25 12:39:59;;;;;;;42.87;25.37;;;15.70;99.90;;;;;;5055536;28;20447;-84
2021/03/25 12:42:42;;;;;;;42.17;24.23;;;16.00;99.90;;;;;;5056439;28;20459;-85
2021/03/25 12:45:09;;;;;;;41.60;25.00;;;16.10;99.90;;;;;;5056675;28;20431;-84
2021/03/25 12:47:36;;;;;;;43.73;24.03;;;;;;;;;;5056085;28;20486;-83
2021/03/25 12:50:05;;;;;;;44.07;27.03;;;16.10;99.90;;;;;;5056625;28;20430;-84
2021/03/25 12:52:33;;;;;;;41.03;24.60;;;15.80;99.90;;;;;;5055098;28;20446;-84
2021/03/25 12:55:00;;;;;;;36.83;22.80;;;;;;;;;;5053809;28;20445;-84
2021/03/25 12:57:28;;;;;;;45.63;26.73;;;15.80;99.90;;;;;;5055172;28;20482;-84
2021/03/25 12:59:58;;;;;;;41.40;24.77;;;15.40;99.90;;;;;;5055804;28;20446;-84
2021/03/25 13:02:24;;;;;;;38.60;26.50;;;15.60;99.90;;;;;;5054877;28;20430;-84
2021/03/25 13:04:51;;;;;;;34.93;22.60;;;;;;;;;;5055352;28;20434;-85
2021/03/25 13:07:22;;;;;;;42.80;26.90;;;15.50;99.90;;;;;;5054892;28;20442;-85
2021/03/25 13:09:58;;;;;;;41.13;26.87;;;15.40;99.90;;;;;;5055861;28;20502;-84